Time;durP1;ratioP1;P1;durP2;ratioP2;P2;SDS_P1;SDS_P2;PMS_P1;PMS_P2;Temp;Humidity;BMP_temperature;BMP_pressure;BME280_temperature;BME280_humidity;BME280_pressure;Samples;Min_cycle;Max_cycle;Signal;HPM_P1;HPM_P2
2021/10/31 00:02:06;;;;;;;1.90;0.73;;;;;;;;;;5117899;28;20212;-65
2021/10/31 00:04:36;;;;;;;0.60;0.60;;;;;;;;;;5117761;28;20211;-65
2021/10/31 00:07:04;;;;;;;0.60;0.60;;;;;;;;;;5117408;28;20211;-65
2021/10/31 00:09:32;;;;;;;0.60;0.60;;;;;;;;;;5117639;28;20312;-65
2021/10/31 00:12:00;;;;;;;3.97;0.70;;;;;;;;;;5117844;28;20248;-65
2021/10/31 00:14:28;;;;;;;1.20;0.70;;;;;;;;;;5117841;28;20221;-65
2021/10/31 00:16:59;;;;;;;0.70;0.70;;;;;;;;;;5117635;28;20237;-65
2021/10/31 00:19:27;;;;;;;0.50;0.50;;;;;;;;;;5117726;28;20312;-65
2021/10/31 00:21:57;;;;;;;0.80;0.80;;;;;;;;;;5117562;28;20288;-65
2021/10/31 00:24:25;;;;;;;0.67;0.67;;;;;;;;;;5117253;28;20264;-65
2021/10/31 00:26:53;;;;;;;0.57;0.57;;;;;;;;;;5117737;28;20207;-65
2021/10/31 00:29:21;;;;;;;0.60;0.60;;;;;;;;;;5117495;28;20270;-65
2021/10/31 00:31:49;;;;;;;0.67;0.67;;;;;;;;;;5117460;28;20739;-65
2021/10/31 00:34:17;;;;;;;0.53;0.50;;;;;;;;;;5117241;28;20303;-65
2021/10/31 00:36:45;;;;;;;1.00;0.60;;;;;;;;;;5117367;28;20287;-65
2021/10/31 00:39:14;;;;;;;0.40;0.40;;;;;;;;;;5117129;28;20307;-65
2021/10/31 00:41:42;;;;;;;0.83;0.57;;;;;;;;;;5117599;28;20569;-65
2021/10/31 00:44:10;;;;;;;0.93;0.50;;;;;;;;;;5121206;28;20288;-65
2021/10/31 00:46:38;;;;;;;0.53;0.53;;;;;;;;;;5121214;28;20228;-65
2021/10/31 00:49:06;;;;;;;0.50;0.50;;;;;;;;;;5121073;28;20758;-65
2021/10/31 00:51:34;;;;;;;0.80;0.80;;;;;;;;;;5119594;28;20203;-65
2021/10/31 00:54:03;;;;;;;1.10;1.00;;;;;;;;;;5106152;28;20198;-65
2021/10/31 00:56:34;;;;;;;0.93;0.60;;;;;;;;;;5107526;28;20256;-65
2021/10/31 00:59:02;;;;;;;1.00;0.93;;;;;;;;;;5108527;28;20217;-65
2021/10/31 01:01:31;;;;;;;1.20;1.10;;;;;;;;;;5109310;27;20197;-65
2021/10/31 01:04:00;;;;;;;0.90;0.90;;;;;;;;;;5108790;28;20197;-65
2021/10/31 01:06:42;;;;;;;1.23;1.00;;;;;;;;;;5106329;28;20194;-65
2021/10/31 01:09:15;;;;;;;3.10;1.30;;;;;;;;;;5108249;28;20234;-65
2021/10/31 01:11:51;;;;;;;1.97;1.60;;;;;;;;;;5104631;28;20232;-65
2021/10/31 01:14:31;;;;;;;1.60;1.50;;;;;;;;;;5104934;28;20193;-64
2021/10/31 01:17:04;;;;;;;1.50;1.40;;;;;;;;;;5103598;28;20229;-65
2021/10/31 01:19:39;;;;;;;1.30;1.20;;;;;;;;;;5107181;28;20221;-64
2021/10/31 01:22:20;;;;;;;0.80;0.80;;;;;;;;;;5107661;28;20268;-64
2021/10/31 01:25:01;;;;;;;1.33;1.20;;;;;;;;;;5104761;28;20264;-64
2021/10/31 01:27:34;;;;;;;1.93;1.30;;;;;;;;;;5107192;28;20229;-64
2021/10/31 01:30:06;;;;;;;1.83;1.33;;;;;;;;;;5106613;28;20298;-64
2021/10/31 01:32:40;;;;;;;2.53;1.10;;;;;;;;;;5106802;28;20334;-65
2021/10/31 01:35:13;;;;;;;1.87;1.30;;;;;;;;;;5106537;28;20220;-65
2021/10/31 01:37:47;;;;;;;2.10;1.13;;;;;;;;;;5103481;28;20201;-65
2021/10/31 01:40:19;;;;;;;1.60;1.50;;;;;;;;;;5109372;28;20281;-64
2021/10/31 01:42:56;;;;;;;1.50;1.40;;;;;;;;;;5106107;28;20208;-64
2021/10/31 01:45:28;;;;;;;1.43;1.33;;;;;;;;;;5106356;28;20288;-64
2021/10/31 01:48:01;;;;;;;2.17;2.00;;;;;;;;;;5107009;28;20227;-64
2021/10/31 01:50:34;;;;;;;1.70;1.60;;;;;;;;;;5105956;28;20206;-64
2021/10/31 01:53:04;;;;;;;2.67;1.70;;;;;;;;;;5106346;28;20203;-64
2021/10/31 01:55:35;;;;;;;2.40;1.97;;;;;;;;;;5103646;28;20232;-65
2021/10/31 01:58:04;;;;;;;2.87;1.67;;;;;;;;;;5104000;28;20228;-65
2021/10/31 02:00:34;;;;;;;2.37;1.80;;;;;;;;;;5106678;28;20324;-65
2021/10/31 02:03:02;;;;;;;3.83;1.60;;;;;;;;;;5105832;28;20717;-65
2021/10/31 02:05:32;;;;;;;2.23;1.50;;;;;;;;;;5119173;28;20560;-64
2021/10/31 02:08:03;;;;;;;2.80;1.37;;;;;;;;;;5119257;28;20225;-64
2021/10/31 02:10:32;;;;;;;3.57;1.80;;;;;;;;;;5119388;28;20209;-64
2021/10/31 02:13:01;;;;;;;3.77;1.93;;;;;;;;;;5119554;28;20247;-65
2021/10/31 02:15:31;;;;;;;1.80;1.70;;;;;;;;;;5118889;28;20235;-64
2021/10/31 02:18:00;;;;;;;1.70;1.60;;;;;;;;;;5119027;28;20247;-65
2021/10/31 02:20:28;;;;;;;3.60;1.90;;;;;;;;;;5119013;28;20706;-64
2021/10/31 02:22:58;;;;;;;1.93;1.80;;;;;;;;;;5119295;28;20287;-64
2021/10/31 02:25:26;;;;;;;3.07;1.80;;;;;;;;;;5118917;28;20207;-64
2021/10/31 02:27:54;;;;;;;1.83;1.70;;;;;;;;;;5118965;28;20653;-64
2021/10/31 02:30:22;;;;;;;1.77;1.47;;;;;;;;;;5126935;27;20282;-65
2021/10/31 02:32:51;;;;;;;5.20;1.63;;;;;;;;;;5119158;28;20205;-64
2021/10/31 02:35:19;;;;;;;1.50;1.40;;;;;;;;;;5118958;28;20204;-64
2021/10/31 02:37:47;;;;;;;9.53;1.60;;;;;;;;;;5119079;28;20204;-64
2021/10/31 02:40:18;;;;;;;1.80;1.50;;;;;;;;;;5118372;28;20287;-64
2021/10/31 02:42:47;;;;;;;2.13;1.63;;;;;;;;;;5118988;28;20298;-65
2021/10/31 02:45:15;;;;;;;1.40;1.20;;;;;;;;;;5118808;28;20208;-64
2021/10/31 02:47:46;;;;;;;1.57;1.47;;;;;;;;;;5118749;28;20205;-65
2021/10/31 02:50:16;;;;;;;1.53;1.40;;;;;;;;;;5118876;28;20243;-64
2021/10/31 02:52:50;;;;;;;2.83;1.47;;;;;;;;;;5119147;28;20247;-64
2021/10/31 02:55:23;;;;;;;1.40;1.30;;;;;;;;;;5118650;28;20215;-65
2021/10/31 02:57:55;;;;;;;5.07;1.47;;;;;;;;;;5118665;28;20233;-64
2021/10/31 03:00:24;;;;;;;3.07;1.50;;;;;;;;;;5118865;28;20288;-64
2021/10/31 03:02:52;;;;;;;1.23;1.10;;;;;;;;;;5118501;28;20258;-65
2021/10/31 03:05:20;;;;;;;1.60;1.50;;;;;;;;;;5117630;28;20647;-64
2021/10/31 03:07:49;;;;;;;2.13;1.20;;;;;;;;;;5118439;28;20200;-65
2021/10/31 03:10:17;;;;;;;1.67;1.17;;;;;;;;;;5118379;28;20204;-65
2021/10/31 03:12:48;;;;;;;1.23;1.10;;;;;;;;;;5118197;28;20577;-64
2021/10/31 03:15:17;;;;;;;1.67;1.23;;;;;;;;;;5118552;28;20288;-64
2021/10/31 03:17:45;;;;;;;1.30;1.00;;;;;;;;;;5114676;28;20319;-64
2021/10/31 03:20:13;;;;;;;1.63;1.53;;;;;;;;;;5118153;28;20234;-64
2021/10/31 03:22:41;;;;;;;3.80;1.30;;;;;;;;;;5106033;28;20196;-64
2021/10/31 03:25:09;;;;;;;1.50;1.30;;;;;;;;;;5117951;28;20264;-64
2021/10/31 03:27:37;;;;;;;1.30;1.20;;;;;;;;;;5117935;28;20660;-64
2021/10/31 03:30:08;;;;;;;1.63;1.50;;;;;;;;;;5116035;28;20281;-64
2021/10/31 03:32:35;;;;;;;1.07;1.00;;;;;;;;;;5118030;28;20227;-65
2021/10/31 03:35:04;;;;;;;2.63;0.83;;;;;;;;;;5117921;28;20288;-65
2021/10/31 03:37:32;;;;;;;1.30;0.90;;;;;;;;;;5117880;28;20224;-65
2021/10/31 03:40:00;;;;;;;1.33;1.07;;;;;;;;;;5117351;28;20774;-65
2021/10/31 03:42:28;;;;;;;2.80;0.80;;;;;;;;;;5118207;28;20287;-65
2021/10/31 03:44:57;;;;;;;0.80;0.80;;;;;;;;;;5117843;28;20209;-65
2021/10/31 03:47:28;;;;;;;0.80;0.80;;;;;;;;;;5117863;28;20734;-64
2021/10/31 03:49:56;;;;;;;3.93;1.00;;;;;;;;;;5117705;28;20695;-64
2021/10/31 03:52:24;;;;;;;0.83;0.83;;;;;;;;;;5118016;28;20627;-65
2021/10/31 03:54:52;;;;;;;1.10;0.87;;;;;;;;;;5117674;28;20646;-65
2021/10/31 03:57:20;;;;;;;0.93;0.93;;;;;;;;;;5117994;28;20278;-64
2021/10/31 03:59:48;;;;;;;1.03;0.87;;;;;;;;;;5118218;28;20263;-65
2021/10/31 04:02:17;;;;;;;1.90;0.83;;;;;;;;;;5117746;28;20638;-64
2021/10/31 04:04:46;;;;;;;1.30;0.70;;;;;;;;;;5117719;28;20200;-65
2021/10/31 04:07:14;;;;;;;0.90;0.90;;;;;;;;;;5118171;28;20664;-65
2021/10/31 04:09:42;;;;;;;2.73;1.17;;;;;;;;;;5117484;28;20235;-65
2021/10/31 04:12:10;;;;;;;0.60;0.60;;;;;;;;;;5117794;28;20287;-64
2021/10/31 04:14:38;;;;;;;1.87;0.80;;;;;;;;;;5117655;28;20227;-64
2021/10/31 04:17:06;;;;;;;1.00;1.00;;;;;;;;;;5118350;28;20608;-65
2021/10/31 04:19:34;;;;;;;0.80;0.80;;;;;;;;;;5121572;28;20224;-65
2021/10/31 04:22:04;;;;;;;1.00;0.90;;;;;;;;;;5121717;28;20280;-64
2021/10/31 04:24:32;;;;;;;0.70;0.70;;;;;;;;;;5121162;28;20567;-64
2021/10/31 04:27:01;;;;;;;1.93;0.83;;;;;;;;;;5121900;27;20280;-64
2021/10/31 04:29:29;;;;;;;0.80;0.80;;;;;;;;;;5120642;28;20227;-64
2021/10/31 04:31:57;;;;;;;0.83;0.80;;;;;;;;;;5119151;28;20215;-64
2021/10/31 04:34:25;;;;;;;0.60;0.60;;;;;;;;;;5121456;28;20292;-64
2021/10/31 04:36:53;;;;;;;0.80;0.80;;;;;;;;;;5121250;28;20228;-65
2021/10/31 04:39:23;;;;;;;1.00;0.90;;;;;;;;;;5121091;27;20239;-64
2021/10/31 04:41:52;;;;;;;1.17;0.90;;;;;;;;;;5120912;28;20219;-64
2021/10/31 04:44:20;;;;;;;0.67;0.67;;;;;;;;;;5121676;27;20230;-64
2021/10/31 04:46:48;;;;;;;0.80;0.70;;;;;;;;;;5121316;28;20201;-64
2021/10/31 04:49:16;;;;;;;0.80;0.80;;;;;;;;;;5121222;28;20311;-64
2021/10/31 04:51:44;;;;;;;1.37;0.50;;;;;;;;;;5121120;28;20287;-65
2021/10/31 04:54:12;;;;;;;1.40;1.00;;;;;;;;;;5120707;28;20204;-64
2021/10/31 04:56:41;;;;;;;0.73;0.73;;;;;;;;;;5120766;28;20570;-64
2021/10/31 04:59:09;;;;;;;0.97;0.77;;;;;;;;;;5120621;27;20229;-64
2021/10/31 05:01:37;;;;;;;1.90;0.60;;;;;;;;;;5121079;28;20269;-65
2021/10/31 05:04:06;;;;;;;0.80;0.80;;;;;;;;;;5121198;28;20205;-65
2021/10/31 05:06:34;;;;;;;1.00;0.87;;;;;;;;;;5120961;28;20288;-65
2021/10/31 05:09:02;;;;;;;1.70;0.87;;;;;;;;;;5120386;28;20228;-65
2021/10/31 05:11:30;;;;;;;0.80;0.70;;;;;;;;;;5121010;28;20215;-65
2021/10/31 05:13:59;;;;;;;1.00;1.00;;;;;;;;;;5122076;27;20269;-65
2021/10/31 05:16:27;;;;;;;1.37;1.10;;;;;;;;;;5120206;28;20201;-65
2021/10/31 05:18:57;;;;;;;1.50;1.40;;;;;;;;;;5120365;27;20323;-65
2021/10/31 05:21:25;;;;;;;1.10;1.10;;;;;;;;;;5122227;27;20203;-64
2021/10/31 05:23:53;;;;;;;1.03;1.03;;;;;;;;;;5117404;28;20236;-65
2021/10/31 05:26:21;;;;;;;3.57;1.37;;;;;;;;;;5120970;27;20201;-65
2021/10/31 05:28:49;;;;;;;2.60;1.13;;;;;;;;;;5120831;27;20274;-65
2021/10/31 05:31:18;;;;;;;1.30;1.20;;;;;;;;;;5121781;27;20272;-65
2021/10/31 05:33:47;;;;;;;1.23;1.13;;;;;;;;;;5120196;28;20212;-65
2021/10/31 05:36:15;;;;;;;3.00;1.40;;;;;;;;;;5120643;27;20205;-65
2021/10/31 05:38:43;;;;;;;1.63;1.53;;;;;;;;;;5120763;27;20308;-65
2021/10/31 05:41:12;;;;;;;1.60;1.50;;;;;;;;;;5117083;27;20189;-65
2021/10/31 05:43:39;;;;;;;2.07;1.40;;;;;;;;;;5121566;27;20279;-65
2021/10/31 05:46:08;;;;;;;1.50;1.23;;;;;;;;;;5119837;27;20650;-65
2021/10/31 05:48:37;;;;;;;1.50;1.30;;;;;;;;;;5119491;28;20269;-65
2021/10/31 05:51:05;;;;;;;1.50;1.40;;;;;;;;;;5120648;27;20207;-65
2021/10/31 05:53:33;;;;;;;1.40;1.30;;;;;;;;;;5121362;27;20309;-65
2021/10/31 05:56:02;;;;;;;1.20;1.17;;;;;;;;;;5121280;27;20232;-65
2021/10/31 05:58:30;;;;;;;2.53;1.30;;;;;;;;;;5119878;27;20225;-65
2021/10/31 06:00:58;;;;;;;1.60;1.50;;;;;;;;;;5120253;27;20781;-66
2021/10/31 06:03:26;;;;;;;1.43;1.30;;;;;;;;;;5116938;27;20713;-64
2021/10/31 06:05:58;;;;;;;1.70;1.60;;;;;;;;;;5118456;27;20238;-64
2021/10/31 06:08:26;;;;;;;1.67;1.40;;;;;;;;;;5118758;28;20212;-64
2021/10/31 06:10:54;;;;;;;1.60;1.50;;;;;;;;;;5137980;27;20235;-64
2021/10/31 06:13:35;;;;;;;1.97;1.77;;;;;;;;;;5140089;27;20204;-63
2021/10/31 06:16:03;;;;;;;2.47;2.00;;;;;;;;;;5140139;27;20211;-64
2021/10/31 06:18:32;;;;;;;1.80;1.50;;;;;;;;;;5139441;27;20284;-64
2021/10/31 06:21:01;;;;;;;2.47;2.27;;;;;;;;;;5118568;27;20228;-64
2021/10/31 06:23:30;;;;;;;2.17;1.97;;;;;;;;;;5115192;28;20239;-64
2021/10/31 06:26:01;;;;;;;2.57;2.37;;;;;;;;;;5106420;28;20227;-63
2021/10/31 06:28:29;;;;;;;1.73;1.63;;;;;;;;;;5108896;28;20212;-64
2021/10/31 06:30:57;;;;;;;1.97;1.87;;;;;;;;;;5106194;28;20200;-64
2021/10/31 06:33:26;;;;;;;3.23;2.03;;;;;;;;;;5103833;28;20212;-64
2021/10/31 06:35:54;;;;;;;1.80;1.70;;;;;;;;;;5118150;28;20204;-64
2021/10/31 06:38:23;;;;;;;5.33;2.10;;;;;;;;;;5117703;28;21135;-64
2021/10/31 06:40:51;;;;;;;2.07;1.97;;;;;;;;;;5117165;28;20296;-63
2021/10/31 06:43:19;;;;;;;2.27;2.10;;;;;;;;;;5117844;28;20201;-64
2021/10/31 06:45:48;;;;;;;3.27;2.97;;;;;;;;;;5117259;28;20313;-64
2021/10/31 06:48:16;;;;;;;3.17;2.60;;;;;;;;;;5114184;28;20218;-64
2021/10/31 06:50:44;;;;;;;2.50;2.30;;;;;;;;;;5105513;28;20193;-64
2021/10/31 06:53:12;;;;;;;5.53;2.30;;;;;;;;;;5105532;28;20289;-64
2021/10/31 06:55:41;;;;;;;2.20;2.00;;;;;;;;;;5106724;28;20202;-64
2021/10/31 06:58:14;;;;;;;3.47;2.17;;;;;;;;;;5104314;28;20254;-64
2021/10/31 07:00:42;;;;;;;2.60;2.37;;;;;;;;;;5105037;28;20284;-65
2021/10/31 07:03:10;;;;;;;2.67;2.43;;;;;;;;;;5101687;28;20197;-65
2021/10/31 07:05:38;;;;;;;3.20;2.20;;;;;;;;;;5105901;28;20655;-64
2021/10/31 07:08:06;;;;;;;2.20;2.10;;;;;;;;;;5104112;28;20297;-64
2021/10/31 07:10:34;;;;;;;2.50;2.30;;;;;;;;;;5106353;28;20280;-65
2021/10/31 07:13:04;;;;;;;4.87;2.40;;;;;;;;;;5104669;28;20772;-65
2021/10/31 07:15:32;;;;;;;2.10;1.90;;;;;;;;;;5107013;28;20197;-64
2021/10/31 07:18:00;;;;;;;2.63;2.17;;;;;;;;;;5105597;28;20329;-64
2021/10/31 07:20:30;;;;;;;2.57;2.37;;;;;;;;;;5104487;28;20198;-64
2021/10/31 07:22:58;;;;;;;2.20;1.93;;;;;;;;;;5105249;28;20291;-64
2021/10/31 07:25:27;;;;;;;3.00;2.47;;;;;;;;;;5107644;28;20225;-64
2021/10/31 07:27:56;;;;;;;3.73;2.43;;;;;;;;;;5120347;27;20643;-64
2021/10/31 07:30:25;;;;;;;3.07;2.20;;;;;;;;;;5113746;28;20205;-64
2021/10/31 07:32:54;;;;;;;2.13;1.77;;;;;;;;;;5106555;28;20213;-64
2021/10/31 07:35:23;;;;;;;1.90;1.80;;;;;;;;;;5105696;28;20280;-64
2021/10/31 07:37:51;;;;;;;2.80;2.50;;;;;;;;;;5106023;28;20747;-64
2021/10/31 07:40:19;;;;;;;2.20;2.00;;;;;;;;;;5107465;28;20561;-64
2021/10/31 07:42:47;;;;;;;2.00;1.90;;;;;;;;;;5113273;28;20284;-64
2021/10/31 07:45:36;;;;;;;2.20;1.87;;;;;;;;;;5112486;28;20239;-64
2021/10/31 07:48:05;;;;;;;2.33;2.13;;;;;;;;;;5118120;28;20707;-64
2021/10/31 07:50:35;;;;;;;3.30;1.97;;;;;;;;;;5117666;28;20331;-64
2021/10/31 07:53:03;;;;;;;4.43;2.40;;;;;;;;;;5121753;28;20219;-64
2021/10/31 07:55:33;;;;;;;2.60;2.27;;;;;;;;;;5121598;28;20292;-64
2021/10/31 07:58:01;;;;;;;2.40;2.13;;;;;;;;;;5138520;27;20240;-64
2021/10/31 08:00:30;;;;;;;1.97;1.87;;;;;;;;;;5142631;27;20239;-64
2021/10/31 08:02:59;;;;;;;2.70;2.43;;;;;;;;;;5135651;27;20277;-64
2021/10/31 08:05:28;;;;;;;2.47;2.00;;;;;;;;;;5121856;28;20204;-64
2021/10/31 08:07:58;;;;;;;1.83;1.63;;;;;;;;;;5122185;28;20312;-64
2021/10/31 08:10:26;;;;;;;2.67;2.17;;;;;;;;;;5121865;27;20220;-64
2021/10/31 08:12:54;;;;;;;4.10;2.27;;;;;;;;;;5121528;28;20232;-64
2021/10/31 08:15:22;;;;;;;2.10;2.00;;;;;;;;;;5121562;28;20208;-64
2021/10/31 08:17:50;;;;;;;2.80;2.30;;;;;;;;;;5121300;28;20229;-64
2021/10/31 08:20:20;;;;;;;4.37;2.27;;;;;;;;;;5121408;28;20232;-64
2021/10/31 08:22:49;;;;;;;1.73;1.60;;;;;;;;;;5121331;27;20738;-63
2021/10/31 08:25:17;;;;;;;1.80;1.70;;;;;;;;;;5112164;28;20335;-65
2021/10/31 08:27:45;;;;;;;2.03;1.93;;;;;;;;;;5106652;28;20201;-65
2021/10/31 08:30:13;;;;;;;2.20;1.53;;;;;;;;;;5108864;28;20216;-65
2021/10/31 08:32:43;;;;;;;2.10;1.90;;;;;;;;;;5102361;28;20285;-65
2021/10/31 08:35:11;;;;;;;2.30;1.80;;;;;;;;;;5130062;27;20286;-65
2021/10/31 08:37:41;;;;;;;2.10;1.20;;;;;;;;;;5141558;27;20283;-64
2021/10/31 08:40:09;;;;;;;2.83;1.70;;;;;;;;;;5123296;27;20235;-66
2021/10/31 08:42:37;;;;;;;1.77;1.23;;;;;;;;;;5120814;28;20295;-65
2021/10/31 08:45:06;;;;;;;1.90;1.40;;;;;;;;;;5121114;28;20207;-65
2021/10/31 08:47:34;;;;;;;0.87;0.87;;;;;;;;;;5121159;28;20211;-65
2021/10/31 08:50:02;;;;;;;1.10;1.10;;;;;;;;;;5120407;28;20742;-68
2021/10/31 08:52:31;;;;;;;1.30;1.20;;;;;;;;;;5121135;27;20208;-66
2021/10/31 08:55:00;;;;;;;1.20;1.10;;;;;;;;;;5120988;28;20201;-65
2021/10/31 08:57:29;;;;;;;1.20;1.10;;;;;;;;;;5121311;28;20288;-66
2021/10/31 08:59:58;;;;;;;1.10;1.10;;;;;;;;;;5120285;27;20320;-66
2021/10/31 09:02:26;;;;;;;3.17;1.10;;;;;;;;;;5120006;28;20232;-66
2021/10/31 09:04:55;;;;;;;1.33;1.27;;;;;;;;;;5120633;28;20242;-66
2021/10/31 09:07:23;;;;;;;0.90;0.90;;;;;;;;;;5120648;27;20209;-66
2021/10/31 09:09:52;;;;;;;1.20;1.07;;;;;;;;;;5120045;28;20662;-66
2021/10/31 09:12:21;;;;;;;1.93;0.97;;;;;;;;;;5120526;28;20270;-66
2021/10/31 09:14:49;;;;;;;1.10;1.00;;;;;;;;;;5120099;28;20291;-66
2021/10/31 09:17:17;;;;;;;1.00;1.00;;;;;;;;;;5119873;28;20228;-66
2021/10/31 09:19:45;;;;;;;1.50;1.40;;;;;;;;;;5119895;28;20260;-67
2021/10/31 09:22:13;;;;;;;1.20;1.20;;;;;;;;;;5119884;28;20304;-66
2021/10/31 09:24:42;;;;;;;1.43;1.00;;;;;;;;;;5125804;27;20200;-67
2021/10/31 09:27:10;;;;;;;0.80;0.80;;;;;;;;;;5109353;27;20543;-66
2021/10/31 09:29:39;;;;;;;2.53;0.90;;;;;;;;;;5110407;28;20683;-68
2021/10/31 09:32:08;;;;;;;2.90;0.90;;;;;;;;;;5106293;28;20208;-67
2021/10/31 09:34:36;;;;;;;0.83;0.80;;;;;;;;;;5105721;28;20689;-66
2021/10/31 09:37:04;;;;;;;0.93;0.70;;;;;;;;;;5107974;28;20206;-67
2021/10/31 09:39:32;;;;;;;0.73;0.73;;;;;;;;;;5112961;28;20717;-67
2021/10/31 09:42:00;;;;;;;0.63;0.63;;;;;;;;;;5129081;27;20275;-67
2021/10/31 09:44:31;;;;;;;1.33;0.97;;;;;;;;;;5119633;28;20226;-67
2021/10/31 09:47:00;;;;;;;0.73;0.70;;;;;;;;;;5115789;28;20201;-66
2021/10/31 09:49:29;;;;;;;2.83;0.50;;;;;;;;;;5105749;28;20274;-66
2021/10/31 09:51:57;;;;;;;0.50;0.50;;;;;;;;;;5107916;28;20198;-66
2021/10/31 09:54:25;;;;;;;0.90;0.63;;;;;;;;;;5107369;28;20227;-66
2021/10/31 09:56:53;;;;;;;0.80;0.80;;;;;;;;;;5108529;28;20212;-65
2021/10/31 09:59:25;;;;;;;0.50;0.50;;;;;;;;;;5124938;27;20243;-65
2021/10/31 10:02:11;;;;;;;0.87;0.40;;;;;;;;;;5124836;27;20566;-65
2021/10/31 10:04:43;;;;;;;0.37;0.37;;;;;;;;;;5119690;28;20211;-66
2021/10/31 10:07:15;;;;;;;0.50;0.40;;;;;;;;;;5118659;28;20211;-66
2021/10/31 10:09:51;;;;;;;2.63;0.50;;;;;;;;;;5119108;28;20582;-66
2021/10/31 10:12:19;;;;;;;1.03;0.40;;;;;;;;;;5119411;28;20245;-66
2021/10/31 10:14:49;;;;;;;0.50;0.50;;;;;;;;;;5119421;28;20253;-66
2021/10/31 10:17:18;;;;;;;0.53;0.53;;;;;;;;;;5119161;28;20243;-66
2021/10/31 10:19:49;;;;;;;0.80;0.63;;;;;;;;;;5119066;28;20244;-65
2021/10/31 10:22:19;;;;;;;0.50;0.50;;;;;;;;;;5119116;28;20208;-66
2021/10/31 10:24:51;;;;;;;0.47;0.47;;;;;;;;;;5119742;27;20197;-66
2021/10/31 10:27:21;;;;;;;0.43;0.43;;;;;;;;;;5139501;27;20731;-66
2021/10/31 10:29:50;;;;;;;0.60;0.60;;;;;;;;;;5121907;27;20253;-65
2021/10/31 10:32:19;;;;;;;0.43;0.43;;;;;;;;;;5116323;28;20209;-66
2021/10/31 10:34:53;;;;;;;0.40;0.40;;;;;;;;;;5132497;27;20215;-65
2021/10/31 10:37:23;;;;;;;0.57;0.53;;;;;;;;;;5139084;27;20316;-65
2021/10/31 10:39:53;;;;;;;0.60;0.40;;;;;;;;;;5123599;27;20228;-66
2021/10/31 10:42:22;;;;;;;0.60;0.60;;;;;;;;;;5118505;28;20209;-65
2021/10/31 10:44:51;;;;;;;0.40;0.40;;;;;;;;;;5109220;28;20210;-67
2021/10/31 10:47:21;;;;;;;0.50;0.50;;;;;;;;;;5106300;28;20288;-66
2021/10/31 10:49:52;;;;;;;0.97;0.90;;;;;;;;;;5106054;28;20300;-66
2021/10/31 10:52:22;;;;;;;1.27;0.80;;;;;;;;;;5102914;28;20288;-68
2021/10/31 10:54:52;;;;;;;0.67;0.67;;;;;;;;;;5117206;28;20327;-68
2021/10/31 10:57:21;;;;;;;0.57;0.53;;;;;;;;;;5118554;28;20295;-66
2021/10/31 10:59:54;;;;;;;0.47;0.47;;;;;;;;;;5117864;28;20256;-66
2021/10/31 11:02:23;;;;;;;0.70;0.70;;;;;;;;;;5108145;28;20614;-66
2021/10/31 11:04:54;;;;;;;0.70;0.70;;;;;;;;;;5104408;28;20213;-66
2021/10/31 11:07:33;;;;;;;0.70;0.70;;;;;;;;;;5105239;28;20207;-66
2021/10/31 11:10:02;;;;;;;0.60;0.60;;;;;;;;;;5104827;28;20284;-66
2021/10/31 11:12:32;;;;;;;0.40;0.40;;;;;;;;;;5104859;28;20296;-67
2021/10/31 11:15:01;;;;;;;1.93;0.70;;;;;;;;;;5105166;28;20288;-66
2021/10/31 11:17:29;;;;;;;0.63;0.63;;;;;;;;;;5104670;28;20593;-66
2021/10/31 11:19:59;;;;;;;1.23;1.10;;;;;;;;;;5104703;28;20289;-66
2021/10/31 11:22:29;;;;;;;0.50;0.50;;;;;;;;;;5104754;28;20197;-66
2021/10/31 11:24:58;;;;;;;0.73;0.73;;;;;;;;;;5106968;28;20205;-66
2021/10/31 11:27:27;;;;;;;0.93;0.53;;;;;;;;;;5105002;28;20649;-66
2021/10/31 11:29:55;;;;;;;0.40;0.40;;;;;;;;;;5108055;28;20227;-66
2021/10/31 11:32:24;;;;;;;0.60;0.60;;;;;;;;;;5102122;28;20292;-66
2021/10/31 11:34:53;;;;;;;0.67;0.67;;;;;;;;;;5107220;28;20225;-66
2021/10/31 11:37:23;;;;;;;0.53;0.53;;;;;;;;;;5102619;28;20205;-66
2021/10/31 11:39:54;;;;;;;1.90;0.50;;;;;;;;;;5107826;28;20297;-66
2021/10/31 11:42:23;;;;;;;0.47;0.40;;;;;;;;;;5104798;28;20223;-66
2021/10/31 11:45:02;;;;;;;0.40;0.40;;;;;;;;;;5106176;28;20197;-66
2021/10/31 11:47:30;;;;;;;1.33;0.70;;;;;;;;;;5104644;28;20203;-66
2021/10/31 11:50:02;;;;;;;0.70;0.70;;;;;;;;;;5102186;28;20223;-66
2021/10/31 11:52:52;;;;;;;0.77;0.70;;;;;;;;;;5105260;28;20197;-65
2021/10/31 11:55:42;;;;;;;1.00;0.73;;;;;;;;;;5105697;28;20735;-66
2021/10/31 11:58:33;;;;;;;0.50;0.50;;;;;;;;;;5104232;28;20630;-65
2021/10/31 12:01:03;;;;;;;0.60;0.60;;;;;;;;;;5104495;28;20217;-65
2021/10/31 12:03:46;;;;;;;0.60;0.60;;;;;;;;;;5104872;28;20235;-65
2021/10/31 12:06:32;;;;;;;1.33;0.57;;;;;;;;;;5104276;28;20248;-65
2021/10/31 12:09:02;;;;;;;0.70;0.70;;;;;;;;;;5105970;28;20235;-66
2021/10/31 12:11:51;;;;;;;0.53;0.53;;;;;;;;;;5103281;28;20595;-66
2021/10/31 12:14:42;;;;;;;0.57;0.57;;;;;;;;;;5104067;28;20228;-65
2021/10/31 12:17:10;;;;;;;0.60;0.60;;;;;;;;;;5103666;28;20225;-67
2021/10/31 12:19:40;;;;;;;0.60;0.60;;;;;;;;;;5104795;28;20316;-67
2021/10/31 12:22:08;;;;;;;0.70;0.70;;;;;;;;;;5105300;28;20236;-67
2021/10/31 12:24:39;;;;;;;1.80;0.83;;;;;;;;;;5105507;28;20197;-65
2021/10/31 12:27:12;;;;;;;0.50;0.50;;;;;;;;;;5105197;28;20555;-66
2021/10/31 12:29:43;;;;;;;0.77;0.77;;;;;;;;;;5107421;28;20746;-66
2021/10/31 12:32:15;;;;;;;1.17;0.60;;;;;;;;;;5107032;28;20748;-66
2021/10/31 12:34:44;;;;;;;0.47;0.47;;;;;;;;;;5135527;28;20785;-66
2021/10/31 12:37:27;;;;;;;0.33;0.33;;;;;;;;;;5137973;27;20232;-65
2021/10/31 12:39:58;;;;;;;0.43;0.43;;;;;;;;;;5125106;27;20319;-66
2021/10/31 12:42:30;;;;;;;0.27;0.27;;;;;;;;;;5121117;28;20297;-66
2021/10/31 12:45:00;;;;;;;1.87;0.70;;;;;;;;;;5120909;28;20240;-66
2021/10/31 12:47:35;;;;;;;0.83;0.70;;;;;;;;;;5121798;27;20197;-64
2021/10/31 12:50:21;;;;;;;0.83;0.53;;;;;;;;;;5108292;28;20718;-64
2021/10/31 12:52:55;;;;;;;0.43;0.43;;;;;;;;;;5107843;28;20199;-64
2021/10/31 12:55:25;;;;;;;1.17;0.60;;;;;;;;;;5120804;28;20203;-64
2021/10/31 12:57:56;;;;;;;0.40;0.40;;;;;;;;;;5120963;28;20283;-64
2021/10/31 13:00:24;;;;;;;1.00;0.53;;;;;;;;;;5120900;28;20259;-64
2021/10/31 13:02:54;;;;;;;0.40;0.40;;;;;;;;;;5121132;28;20277;-64
2021/10/31 13:05:23;;;;;;;0.90;0.70;;;;;;;;;;5120723;28;20309;-64
2021/10/31 13:07:52;;;;;;;0.73;0.73;;;;;;;;;;5120822;28;20219;-64
2021/10/31 13:10:21;;;;;;;0.70;0.70;;;;;;;;;;5120100;28;20287;-64
2021/10/31 13:12:51;;;;;;;0.97;0.60;;;;;;;;;;5120692;28;20205;-64
2021/10/31 13:15:20;;;;;;;1.30;0.40;;;;;;;;;;5120551;28;20212;-64
2021/10/31 13:17:50;;;;;;;0.60;0.60;;;;;;;;;;5120081;28;20236;-64
2021/10/31 13:20:19;;;;;;;1.00;0.80;;;;;;;;;;5120256;28;20292;-64
2021/10/31 13:22:49;;;;;;;0.63;0.60;;;;;;;;;;5118306;28;20220;-65
2021/10/31 13:25:24;;;;;;;0.50;0.50;;;;;;;;;;5108743;27;20201;-64
2021/10/31 13:27:59;;;;;;;0.77;0.77;;;;;;;;;;5106455;28;20550;-64
2021/10/31 13:30:28;;;;;;;0.70;0.70;;;;;;;;;;5107981;28;20276;-64
2021/10/31 13:32:56;;;;;;;0.80;0.80;;;;;;;;;;5107451;28;20193;-64
2021/10/31 13:35:25;;;;;;;0.43;0.43;;;;;;;;;;5107958;28;20254;-64
2021/10/31 13:37:59;;;;;;;0.80;0.70;;;;;;;;;;5106439;28;20598;-64
2021/10/31 13:40:27;;;;;;;0.60;0.60;;;;;;;;;;5107397;28;20202;-65
2021/10/31 13:42:57;;;;;;;0.60;0.60;;;;;;;;;;5104827;28;20251;-64
2021/10/31 13:45:25;;;;;;;1.03;0.60;;;;;;;;;;5107234;28;20679;-64
2021/10/31 13:47:54;;;;;;;1.33;0.90;;;;;;;;;;5107510;28;20222;-65
2021/10/31 13:50:23;;;;;;;1.50;0.67;;;;;;;;;;5116895;28;20289;-66
2021/10/31 13:52:54;;;;;;;0.80;0.80;;;;;;;;;;5119664;28;20753;-65
2021/10/31 13:55:22;;;;;;;0.90;0.70;;;;;;;;;;5119627;28;20284;-66
2021/10/31 13:57:51;;;;;;;1.53;0.53;;;;;;;;;;5119718;28;20751;-65
2021/10/31 14:00:22;;;;;;;0.67;0.67;;;;;;;;;;5120006;28;20201;-66
2021/10/31 14:02:51;;;;;;;0.73;0.73;;;;;;;;;;5115254;28;20227;-65
2021/10/31 14:05:20;;;;;;;0.97;0.53;;;;;;;;;;5112136;27;20610;-64
2021/10/31 14:07:49;;;;;;;0.60;0.60;;;;;;;;;;5115669;28;20202;-65
2021/10/31 14:10:18;;;;;;;0.83;0.80;;;;;;;;;;5139486;27;20647;-65
2021/10/31 14:12:47;;;;;;;0.73;0.63;;;;;;;;;;5139674;27;20284;-64
2021/10/31 14:15:16;;;;;;;0.90;0.80;;;;;;;;;;5128883;27;20283;-64
2021/10/31 14:17:56;;;;;;;0.90;0.90;;;;;;;;;;5139419;27;20232;-65
2021/10/31 14:20:24;;;;;;;0.80;0.80;;;;;;;;;;5132144;27;20235;-65
2021/10/31 14:22:53;;;;;;;0.70;0.70;;;;;;;;;;5118887;28;20311;-65
2021/10/31 14:25:25;;;;;;;0.73;0.73;;;;;;;;;;5119401;28;20326;-64
2021/10/31 14:28:05;;;;;;;0.90;0.90;;;;;;;;;;5119075;28;20268;-65
2021/10/31 14:30:33;;;;;;;1.07;0.90;;;;;;;;;;5112779;28;20718;-64
2021/10/31 14:33:04;;;;;;;1.80;0.90;;;;;;;;;;5119097;28;20211;-65
2021/10/31 14:35:40;;;;;;;0.80;0.80;;;;;;;;;;5118485;28;20572;-64
2021/10/31 14:38:15;;;;;;;2.20;1.00;;;;;;;;;;5118284;28;20307;-65
2021/10/31 14:40:43;;;;;;;1.27;0.70;;;;;;;;;;5121299;27;20211;-64
2021/10/31 14:43:16;;;;;;;1.20;0.83;;;;;;;;;;5117476;28;20233;-64
2021/10/31 14:45:54;;;;;;;1.10;1.00;;;;;;;;;;5118635;28;20288;-64
2021/10/31 14:48:25;;;;;;;1.10;1.10;;;;;;;;;;5130727;27;20302;-67
2021/10/31 14:50:53;;;;;;;2.50;1.10;;;;;;;;;;5105977;28;20634;-65
2021/10/31 14:53:21;;;;;;;1.00;0.90;;;;;;;;;;5102801;28;20197;-64
2021/10/31 14:55:51;;;;;;;0.87;0.87;;;;;;;;;;5111639;28;20201;-64
2021/10/31 14:58:20;;;;;;;1.80;0.90;;;;;;;;;;5135993;27;20224;-64
2021/10/31 15:00:50;;;;;;;1.97;0.80;;;;;;;;;;5138817;27;20218;-64